Time;durP1;ratioP1;P1;durP2;ratioP2;P2;SDS_P1;SDS_P2;PMS_P1;PMS_P2;Temp;Humidity;BMP_temperature;BMP_pressure;BME280_temperature;BME280_humidity;BME280_pressure;Samples;Min_cycle;Max_cycle;Signal;HPM_P1;HPM_P2
2023/04/20 00:01:26;;;;;;;107.50;35.00;;;;;;;7.40;88.03;100147.24;217698;1259;140165;-71
2023/04/20 00:06:31;;;;;;;47.60;27.40;;;;;;;7.37;88.52;100155.73;217851;1257;140457;-72
2023/04/20 00:11:36;;;;;;;94.40;38.60;;;;;;;7.35;88.35;100151.33;217103;1257;933633;-76
2023/04/20 00:16:41;;;;;;;57.30;31.80;;;;;;;7.33;88.12;100153.71;217703;1259;210312;-78
2023/04/20 00:21:47;;;;;;;125.50;35.40;;;;;;;7.33;88.11;100155.05;217602;1256;230175;-79
2023/04/20 00:26:52;;;;;;;117.70;36.50;;;;;;;7.30;88.53;100167.30;217832;1257;140477;-75
2023/04/20 00:31:56;;;;;;;124.30;36.80;;;;;;;7.25;88.50;100163.95;217528;1259;143101;-74
2023/04/20 00:37:01;;;;;;;110.80;36.10;;;;;;;7.25;88.44;100158.84;217568;1257;141768;-72
2023/04/20 00:42:07;;;;;;;69.90;29.70;;;;;;;7.26;88.58;100165.09;217510;1257;140294;-76
2023/04/20 00:47:11;;;;;;;38.80;26.30;;;;;;;7.23;88.73;100164.34;220253;1257;140658;-76
2023/04/20 00:52:15;;;;;;;46.60;28.40;;;;;;;7.24;88.69;100162.52;217791;1256;139760;-74
2023/04/20 00:57:22;;;;;;;96.30;28.70;;;;;;;7.24;88.60;100155.41;217486;1256;141743;-72
2023/04/20 01:02:27;;;;;;;;;;;;;;;7.21;88.51;100153.89;219530;1256;140020;-73
2023/04/20 01:07:31;;;;;;;79.20;27.00;;;;;;;7.16;88.72;100156.50;220861;1257;126031;-71
2023/04/20 01:12:35;;;;;;;51.40;29.00;;;;;;;7.16;88.52;100155.04;220260;1256;142938;-71
2023/04/20 01:17:40;;;;;;;52.30;27.60;;;;;;;7.19;88.53;100154.27;220018;1256;140085;-69
2023/04/20 01:22:49;;;;;;;102.70;28.00;;;;;;;7.21;88.24;100152.19;217731;1259;140269;-68
2023/04/20 01:27:53;;;;;;;99.50;27.90;;;;;;;7.17;88.12;100153.64;218681;1256;139871;-73
2023/04/20 01:32:58;;;;;;;39.30;24.70;;;;;;;7.09;88.41;100152.77;217886;1259;140787;-71
2023/04/20 01:38:04;;;;;;;90.70;23.90;;;;;;;7.02;88.05;100150.73;218476;1258;139493;-72
2023/04/20 01:43:10;;;;;;;33.50;24.70;;;;;;;6.97;87.89;100149.59;217824;1259;139823;-72
2023/04/20 01:48:18;;;;;;;54.70;24.10;;;;;;;6.96;88.30;100151.17;217544;1257;140482;-72
2023/04/20 01:53:24;;;;;;;;;;;;;;;6.94;88.13;100151.83;217507;1256;140322;-73
2023/04/20 01:58:30;;;;;;;36.10;23.70;;;;;;;6.91;88.95;100153.52;218144;1257;126631;-73
2023/04/20 02:03:36;;;;;;;30.90;24.20;;;;;;;6.90;88.81;100150.67;218090;1259;139964;-74
2023/04/20 02:08:42;;;;;;;52.50;26.90;;;;;;;6.90;88.43;100156.17;218044;1259;141293;-73
2023/04/20 02:13:45;;;;;;;43.60;24.80;;;;;;;6.88;88.54;100149.77;217764;1257;139962;-71
2023/04/20 02:18:50;;;;;;;70.20;26.90;;;;;;;6.87;88.24;100148.66;217817;1257;139959;-72
2023/04/20 02:23:56;;;;;;;34.30;23.10;;;;;;;6.84;88.78;100151.80;218433;1256;142168;-73
2023/04/20 02:29:02;;;;;;;30.50;23.00;;;;;;;6.84;88.54;100151.67;217744;1257;140079;-73
2023/04/20 02:34:08;;;;;;;30.40;23.00;;;;;;;6.82;88.51;100150.16;218214;1259;140583;-73
2023/04/20 02:39:13;;;;;;;30.30;21.00;;;;;;;6.80;88.79;100152.35;218134;1258;139749;-73
2023/04/20 02:44:18;;;;;;;34.20;23.60;;;;;;;6.79;88.86;100153.98;218712;1257;140039;-71
2023/04/20 02:49:24;;;;;;;30.10;21.50;;;;;;;6.78;88.88;100154.30;217900;1259;141557;-70
2023/04/20 02:54:28;;;;;;;30.30;22.70;;;;;;;6.79;89.20;100152.67;220548;1257;141646;-71
2023/04/20 02:59:33;;;;;;;23.80;19.40;;;;;;;6.80;88.77;100160.74;220452;1259;140036;-71
2023/04/20 03:04:38;;;;;;;30.80;20.90;;;;;;;6.80;88.80;100163.23;217859;1257;151307;-70
2023/04/20 03:09:42;;;;;;;28.90;20.50;;;;;;;6.79;88.79;100158.58;217804;1257;140405;-70
2023/04/20 03:14:47;;;;;;;27.90;21.40;;;;;;;6.75;88.46;100160.13;218746;1257;140064;-70
2023/04/20 03:19:51;;;;;;;25.70;19.50;;;;;;;6.72;88.46;100158.36;218685;1259;140098;-71
2023/04/20 03:24:55;;;;;;;36.20;23.10;;;;;;;6.73;88.82;100161.98;217852;1259;140000;-70
2023/04/20 03:29:59;;;;;;;31.90;23.40;;;;;;;6.75;88.68;100162.23;217807;1257;141776;-71
2023/04/20 03:35:05;;;;;;;33.40;24.90;;;;;;;6.75;88.64;100164.88;217672;1256;139769;-69
2023/04/20 03:40:09;;;;;;;27.50;21.60;;;;;;;6.74;88.78;100166.06;218345;1257;140163;-69
2023/04/20 03:45:14;;;;;;;27.70;20.90;;;;;;;6.69;88.61;100169.49;217882;1257;139864;-69
2023/04/20 03:50:19;;;;;;;27.00;19.50;;;;;;;6.64;88.41;100173.19;217909;1259;140368;-70
2023/04/20 03:55:25;;;;;;;27.90;21.80;;;;;;;6.57;88.10;100170.17;217812;1257;140063;-70
2023/04/20 04:00:29;;;;;;;32.90;22.60;;;;;;;6.51;88.06;100172.59;217708;1257;139651;-75
2023/04/20 04:05:33;;;;;;;31.30;22.20;;;;;;;6.47;87.90;100175.98;217687;1259;140753;-70
2023/04/20 04:10:38;;;;;;;29.30;19.70;;;;;;;6.43;87.84;100178.87;217612;1259;140740;-70
2023/04/20 04:15:42;;;;;;;28.30;21.00;;;;;;;6.40;87.66;100180.50;217739;1259;140751;-70
2023/04/20 04:20:47;;;;;;;22.50;18.30;;;;;;;6.39;87.77;100182.37;217798;1257;139746;-70
2023/04/20 04:25:50;;;;;;;25.00;19.80;;;;;;;6.37;87.80;100183.91;217524;1259;140511;-70
2023/04/20 04:30:54;;;;;;;28.70;20.00;;;;;;;6.36;87.73;100182.15;217971;1259;139755;-69
2023/04/20 04:35:59;;;;;;;31.80;21.00;;;;;;;6.41;87.65;100181.11;218674;1259;141625;-69
2023/04/20 04:41:03;;;;;;;29.90;21.80;;;;;;;6.53;87.74;100183.39;217771;1257;151955;-68
2023/04/20 04:46:12;;;;;;;33.20;21.40;;;;;;;6.70;88.10;100178.25;218825;1257;140508;-78
2023/04/20 04:51:15;;;;;;;26.10;21.60;;;;;;;6.88;88.10;100177.17;220610;1257;140920;-79
2023/04/20 04:56:19;;;;;;;32.30;23.60;;;;;;;7.07;88.15;100171.21;220815;1257;140312;-80
2023/04/20 05:01:22;;;;;;;29.80;21.00;;;;;;;7.29;88.04;100172.92;220387;1257;141782;-77
2023/04/20 05:06:28;;;;;;;30.20;21.30;;;;;;;7.57;88.00;100177.80;219279;1257;141152;-75
2023/04/20 05:11:33;;;;;;;23.80;18.50;;;;;;;7.97;87.57;100184.81;218090;1260;140718;-74
2023/04/20 05:16:37;;;;;;;21.40;16.00;;;;;;;8.46;86.98;100196.94;218007;1260;140667;-74
2023/04/20 05:21:42;;;;;;;28.80;21.90;;;;;;;8.76;86.45;100196.05;218476;1257;248737;-74
2023/04/20 05:26:47;;;;;;;26.10;18.30;;;;;;;9.14;86.41;100198.14;218401;1259;140112;-72
2023/04/20 05:31:52;;;;;;;21.20;18.10;;;;;;;9.57;86.32;100201.73;218573;1257;140886;-73
2023/04/20 05:36:58;;;;;;;21.90;18.00;;;;;;;9.92;86.06;100203.29;217944;1258;140249;-77
2023/04/20 05:42:04;;;;;;;20.40;15.50;;;;;;;10.19;85.35;100203.64;217783;1256;140257;-76
2023/04/20 05:47:08;;;;;;;21.00;16.30;;;;;;;10.40;85.15;100204.46;218128;1259;140783;-75
2023/04/20 05:52:12;;;;;;;17.70;14.00;;;;;;;10.73;84.91;100208.30;217699;1256;141549;-71
2023/04/20 05:57:16;;;;;;;19.50;15.90;;;;;;;11.19;84.49;100205.76;218005;1259;141832;-72
2023/04/20 06:02:21;;;;;;;16.80;14.00;;;;;;;11.65;84.14;100214.17;217898;1260;140709;-71
2023/04/20 06:07:28;;;;;;;19.40;13.80;;;;;;;11.93;83.55;100209.73;218353;1257;140350;-70
2023/04/20 06:12:33;;;;;;;18.80;13.20;;;;;;;12.07;83.09;100211.72;217689;1257;140207;-72
2023/04/20 06:17:39;;;;;;;14.30;11.60;;;;;;;12.16;82.55;100216.73;218134;1257;140910;-73
2023/04/20 06:22:44;;;;;;;15.10;10.60;;;;;;;12.32;82.31;100221.09;218351;1256;141058;-72
2023/04/20 06:27:49;;;;;;;15.60;10.90;;;;;;;12.50;81.47;100225.91;218135;1256;142712;-73
2023/04/20 06:32:55;;;;;;;14.00;11.30;;;;;;;12.67;80.82;100229.27;217819;1260;140793;-73
2023/04/20 06:38:01;;;;;;;12.60;9.60;;;;;;;12.89;80.54;100232.98;217850;1257;141853;-71
2023/04/20 06:43:05;;;;;;;12.90;10.90;;;;;;;13.22;79.87;100228.70;217904;1257;141151;-73
2023/04/20 06:48:09;;;;;;;15.60;9.80;;;;;;;13.65;78.90;100226.41;217847;1257;141623;-70
2023/04/20 06:53:34;;;;;;;13.00;11.70;;;;;;;13.96;78.03;100225.99;218394;1256;140163;-71
2023/04/20 06:58:38;;;;;;;12.90;10.70;;;;;;;14.10;77.45;100233.33;218600;1258;140999;-71
2023/04/20 07:03:45;;;;;;;11.70;9.30;;;;;;;14.17;76.81;100232.57;219026;1255;141333;-74
2023/04/20 07:08:52;;;;;;;13.10;11.70;;;;;;;14.07;76.27;100234.20;218498;1259;141343;-72
2023/04/20 07:13:56;;;;;;;11.60;10.10;;;;;;;14.13;76.22;100236.44;217965;1256;140168;-67
2023/04/20 07:19:00;;;;;;;11.60;9.00;;;;;;;14.15;75.79;100239.20;219088;1256;140251;-78
2023/04/20 07:24:05;;;;;;;11.40;7.80;;;;;;;13.99;75.12;100241.86;217715;1257;140155;-73
2023/04/20 07:29:11;;;;;;;15.80;10.70;;;;;;;13.68;74.68;100246.28;218289;1256;140488;-75
2023/04/20 07:34:15;;;;;;;14.30;10.20;;;;;;;13.43;74.42;100248.59;217797;1257;140190;-75
2023/04/20 07:39:20;;;;;;;15.80;10.30;;;;;;;13.35;74.37;100257.81;217354;1257;143166;-72
2023/04/20 07:44:24;;;;;;;16.50;9.80;;;;;;;13.32;74.51;100261.25;217816;1257;142194;-73
2023/04/20 07:49:28;;;;;;;12.40;10.10;;;;;;;13.35;74.24;100264.52;218044;1260;139929;-71
2023/04/20 07:54:34;;;;;;;14.20;10.90;;;;;;;13.33;74.08;100264.04;217516;1259;141292;-73
2023/04/20 07:59:39;;;;;;;14.60;9.40;;;;;;;13.30;74.01;100265.86;217697;1259;141168;-78
2023/04/20 08:04:45;;;;;;;9.10;7.70;;;;;;;13.31;73.90;100266.38;217577;1260;246835;-76
2023/04/20 08:09:51;;;;;;;14.50;10.40;;;;;;;13.31;73.82;100262.45;218013;1257;140724;-76
2023/04/20 08:15:00;;;;;;;14.20;7.70;;;;;;;13.40;73.78;100267.55;218722;1258;141026;-72
2023/04/20 08:20:09;;;;;;;13.40;8.80;;;;;;;13.63;73.56;100269.45;217770;1254;140100;-78
2023/04/20 08:25:13;;;;;;;10.60;7.30;;;;;;;14.21;73.71;100267.81;217710;1260;139711;-74
2023/04/20 08:30:17;;;;;;;17.70;8.60;;;;;;;14.89;73.05;100270.95;217788;1256;140575;-75
2023/04/20 08:35:21;;;;;;;11.40;7.90;;;;;;;15.62;72.86;100272.10;217705;1258;141402;-71
2023/04/20 08:40:27;;;;;;;15.00;8.10;;;;;;;16.13;71.76;100266.23;218097;1260;140417;-72
2023/04/20 08:45:31;;;;;;;11.60;7.80;;;;;;;16.53;70.81;100269.67;217867;1257;140016;-73
2023/04/20 08:50:40;;;;;;;6.80;5.90;;;;;;;16.84;69.76;100268.83;217918;1257;141686;-72
2023/04/20 08:55:47;;;;;;;7.80;6.00;;;;;;;16.83;68.29;100270.70;217801;1257;142305;-73
2023/04/20 09:00:51;;;;;;;8.40;5.60;;;;;;;16.71;67.37;100271.35;217768;1256;140414;-73
2023/04/20 09:05:56;;;;;;;19.20;5.50;;;;;;;16.54;67.01;100268.55;217590;1260;140360;-74
2023/04/20 09:11:01;;;;;;;9.60;5.80;;;;;;;16.47;66.72;100269.23;218524;1256;139467;-75
2023/04/20 09:16:11;;;;;;;10.90;6.40;;;;;;;16.48;66.25;100265.19;217814;1257;139812;-73
2023/04/20 09:21:16;;;;;;;12.70;5.20;;;;;;;16.53;66.33;100264.02;217710;1257;139567;-76
2023/04/20 09:26:24;;;;;;;10.60;5.80;;;;;;;16.57;65.86;100269.91;217937;1257;139226;-75
2023/04/20 09:31:29;;;;;;;10.30;4.60;;;;;;;16.44;65.64;100271.63;217941;1256;139788;-78
2023/04/20 09:36:38;;;;;;;12.70;5.50;;;;;;;16.49;65.86;100271.59;217758;1256;139350;-76
2023/04/20 09:41:44;;;;;;;10.70;6.30;;;;;;;16.64;65.80;100273.84;217726;1257;140311;-72
2023/04/20 09:46:48;;;;;;;7.00;5.40;;;;;;;16.67;65.11;100278.34;217756;1256;140202;-80
2023/04/20 09:51:53;;;;;;;19.30;5.20;;;;;;;16.77;65.20;100281.04;217841;1257;139436;-74
2023/04/20 09:57:00;;;;;;;12.30;6.00;;;;;;;17.04;65.47;100275.42;217865;1259;141540;-77
2023/04/20 10:02:11;;;;;;;9.30;6.00;;;;;;;17.25;65.00;100270.80;217896;1257;139938;-75
2023/04/20 10:07:24;;;;;;;9.10;5.10;;;;;;;17.37;64.38;100268.96;220492;1255;139606;-75
2023/04/20 10:12:30;;;;;;;8.10;4.70;;;;;;;17.47;63.60;100266.80;217521;1257;142508;-76
2023/04/20 10:17:35;;;;;;;10.70;5.70;;;;;;;17.69;63.84;100257.75;218586;1257;139764;-75
2023/04/20 10:22:40;;;;;;;14.60;5.00;;;;;;;17.93;63.49;100264.08;219252;1256;140010;-75
2023/04/20 10:28:03;;;;;;;15.90;4.60;;;;;;;18.10;62.41;100253.63;218684;1256;140189;-74
2023/04/20 10:33:11;;;;;;;12.60;4.30;;;;;;;18.27;62.42;100248.01;220673;1255;140877;-77
2023/04/20 10:38:35;;;;;;;15.20;5.80;;;;;;;18.48;61.86;100244.34;219418;1257;138763;-75
2023/04/20 10:43:43;;;;;;;19.50;5.80;;;;;;;18.51;61.54;100243.69;220511;1255;140354;-76
2023/04/20 10:48:53;;;;;;;10.30;4.70;;;;;;;18.62;60.79;100235.31;219618;1254;151200;-76
2023/04/20 10:54:06;;;;;;;22.20;5.80;;;;;;;18.41;60.42;100241.55;217664;1255;139338;-76
2023/04/20 10:59:16;;;;;;;14.90;6.30;;;;;;;18.12;60.49;100235.30;218800;1256;141257;-75
2023/04/20 11:04:33;;;;;;;9.10;4.90;;;;;;;17.95;60.18;100237.85;218801;1254;140311;-76
2023/04/20 11:09:39;;;;;;;9.90;4.40;;;;;;;17.97;60.08;100229.93;217878;1257;139370;-76
2023/04/20 11:14:56;;;;;;;16.40;3.80;;;;;;;18.13;60.13;100227.95;218388;1256;139712;-76
2023/04/20 11:20:13;;;;;;;12.10;3.80;;;;;;;18.32;59.23;100225.65;218015;1257;139456;-72
2023/04/20 11:25:18;;;;;;;8.30;3.70;;;;;;;18.49;58.47;100230.89;218417;1256;140533;-76
2023/04/20 11:30:24;;;;;;;16.10;4.10;;;;;;;18.27;57.78;100230.42;217905;1257;139308;-76
2023/04/20 11:35:36;;;;;;;12.30;4.40;;;;;;;18.06;57.53;100231.20;217869;1255;140025;-76
2023/04/20 11:40:42;;;;;;;18.10;3.40;;;;;;;17.82;57.50;100227.13;217935;1259;139285;-77
2023/04/20 11:45:46;;;;;;;14.90;4.40;;;;;;;17.67;57.73;100229.40;218117;1256;153304;-77
2023/04/20 11:50:51;;;;;;;14.60;4.00;;;;;;;17.63;58.01;100228.56;218013;1256;139906;-76
2023/04/20 11:55:55;;;;;;;7.70;3.60;;;;;;;17.59;57.90;100229.73;218471;1254;139696;-77
2023/04/20 12:01:00;;;;;;;18.20;4.80;;;;;;;17.49;57.52;100226.05;218428;1256;140008;-77
2023/04/20 12:06:04;;;;;;;15.10;4.80;;;;;;;17.43;57.23;100225.39;217847;1257;140240;-76
2023/04/20 12:11:08;;;;;;;19.80;4.70;;;;;;;17.50;57.43;100229.61;218194;1256;593231;-78
2023/04/20 12:16:13;;;;;;;11.40;4.30;;;;;;;17.56;57.46;100226.01;218986;1256;141181;-77
2023/04/20 12:21:18;;;;;;;8.10;3.40;;;;;;;17.69;57.55;100225.67;217829;1257;139417;-77
2023/04/20 12:26:23;;;;;;;25.90;4.60;;;;;;;17.73;57.16;100230.47;220154;1256;138812;-78
2023/04/20 12:31:40;;;;;;;14.60;6.40;;;;;;;17.72;57.13;100229.94;219650;1256;140197;-77
2023/04/20 12:36:45;;;;;;;11.10;4.50;;;;;;;17.69;57.44;100225.89;217922;1257;140391;-77
2023/04/20 12:41:50;;;;;;;13.30;5.20;;;;;;;17.68;57.25;100229.27;218058;1257;139409;-76
2023/04/20 12:46:56;;;;;;;17.70;5.50;;;;;;;17.48;57.11;100229.39;218684;1257;141198;-77
2023/04/20 12:52:01;;;;;;;9.20;3.60;;;;;;;17.56;57.49;100220.46;217971;1259;140050;-79
2023/04/20 12:57:06;;;;;;;13.70;5.00;;;;;;;17.95;57.33;100214.94;217863;1259;139291;-78
2023/04/20 13:02:10;;;;;;;12.80;4.80;;;;;;;18.01;56.66;100207.16;218350;1258;140863;-78
2023/04/20 13:07:16;;;;;;;15.00;5.20;;;;;;;17.92;56.23;100205.87;218305;1256;141528;-77
2023/04/20 13:12:21;;;;;;;8.80;4.50;;;;;;;17.82;56.49;100201.83;218226;1256;140940;-81
2023/04/20 13:17:25;;;;;;;9.20;4.40;;;;;;;17.74;56.01;100205.88;217883;1259;139856;-79
2023/04/20 13:22:30;;;;;;;8.10;4.00;;;;;;;17.68;56.01;100200.50;218229;1257;139807;-79
2023/04/20 13:27:34;;;;;;;16.20;5.50;;;;;;;17.67;55.67;100197.91;217849;1256;139558;-79
2023/04/20 13:32:37;;;;;;;11.00;4.70;;;;;;;17.62;55.65;100197.08;217760;1257;139886;-79
2023/04/20 13:37:43;;;;;;;12.30;3.80;;;;;;;17.65;56.05;100195.96;218202;1256;141551;-79
2023/04/20 13:42:48;;;;;;;;;;;;;;;17.67;55.48;100195.48;217786;1257;140034;-75
2023/04/20 13:47:52;;;;;;;14.50;4.40;;;;;;;17.64;55.31;100198.33;218158;1256;125933;-79
2023/04/20 13:52:57;;;;;;;24.30;4.30;;;;;;;17.65;55.28;100200.77;217870;1259;140985;-79
2023/04/20 13:58:02;;;;;;;19.80;5.20;;;;;;;17.68;55.03;100195.43;218291;1257;140946;-80
2023/04/20 14:03:09;;;;;;;19.30;5.50;;;;;;;17.75;55.48;100190.45;217861;1257;139578;-79
2023/04/20 14:08:14;;;;;;;17.60;4.50;;;;;;;17.80;55.51;100189.48;218822;1255;139572;-79
2023/04/20 14:13:19;;;;;;;16.00;4.30;;;;;;;17.75;54.78;100189.75;219091;1257;140320;-78
2023/04/20 14:18:23;;;;;;;17.00;3.90;;;;;;;17.66;55.12;100188.13;217707;1256;142271;-78
2023/04/20 14:33:52;;;;;;;14.20;4.10;;;;;;;17.38;55.22;100184.23;214393;1291;686151;-80
2023/04/20 14:38:56;;;;;;;15.70;5.90;;;;;;;17.39;55.11;100181.27;216096;1269;139096;-80
2023/04/20 14:43:59;;;;;;;10.10;5.20;;;;;;;17.50;55.01;100180.77;215627;1267;580851;-80
2023/04/20 15:38:15;;;;;;;5.90;3.40;;;;;;;16.60;54.50;100173.58;213932;1295;686944;-83
2023/04/20 15:43:17;;;;;;;7.30;3.40;;;;;;;16.68;54.06;100169.64;215897;1269;139947;-82
2023/04/20 15:48:20;;;;;;;9.00;3.20;;;;;;;16.84;53.89;100170.61;215623;1267;414437;-81
2023/04/20 15:53:24;;;;;;;8.00;4.00;;;;;;;17.01;53.13;100165.91;216159;1267;139418;-82
2023/04/20 15:58:27;;;;;;;9.60;4.10;;;;;;;17.14;53.18;100158.33;216954;1269;139934;-81
2023/04/20 16:03:29;;;;;;;15.40;4.40;;;;;;;17.16;52.39;100156.66;216370;1266;138729;-80
2023/04/20 16:08:32;;;;;;;10.20;3.50;;;;;;;17.10;52.58;100153.48;216595;1266;138420;-82
2023/04/20 16:13:35;;;;;;;25.40;4.00;;;;;;;16.97;52.83;100159.65;216278;1269;140297;-82
2023/04/20 16:18:38;;;;;;;12.60;3.20;;;;;;;16.89;52.60;100159.41;216216;1267;139405;-82
2023/04/20 16:23:42;;;;;;;10.50;3.90;;;;;;;16.85;52.95;100158.59;216491;1267;139217;-82
2023/04/20 16:28:46;;;;;;;8.80;3.10;;;;;;;16.86;52.70;100158.75;216353;1267;138539;-81
2023/04/20 16:33:54;;;;;;;6.00;2.60;;;;;;;16.87;52.84;100156.88;216528;1266;139163;-82
2023/04/20 16:38:57;;;;;;;12.80;3.80;;;;;;;16.83;52.76;100161.23;216493;1270;139736;-81
2023/04/20 16:44:00;;;;;;;9.60;3.20;;;;;;;16.77;52.74;100158.97;216804;1267;139008;-81
2023/04/20 16:49:03;;;;;;;8.00;4.40;;;;;;;16.69;52.80;100162.22;217031;1270;139415;-84
2023/04/20 16:54:08;;;;;;;5.80;3.30;;;;;;;16.61;52.74;100163.18;216479;1270;140484;-83
2023/04/20 16:59:11;;;;;;;8.20;3.30;;;;;;;16.54;53.32;100163.05;216621;1266;138293;-83
2023/04/20 17:04:16;;;;;;;11.10;4.20;;;;;;;16.45;53.95;100167.65;216407;1270;139400;-82
2023/04/20 17:09:24;;;;;;;14.70;4.10;;;;;;;16.34;54.73;100171.25;216598;1266;139754;-81
2023/04/20 17:14:31;;;;;;;9.00;4.00;;;;;;;16.23;55.25;100167.91;217158;1260;139332;-81
2023/04/20 17:19:37;;;;;;;9.90;4.40;;;;;;;16.10;55.79;100174.14;217095;1263;139232;-82
2023/04/20 17:24:40;;;;;;;11.20;3.70;;;;;;;15.95;56.05;100170.70;217388;1259;138937;-82
2023/04/20 17:29:44;;;;;;;11.00;3.90;;;;;;;15.77;56.24;100173.07;220076;1259;138933;-78
2023/04/20 17:34:52;;;;;;;10.30;4.50;;;;;;;15.58;56.76;100174.36;217707;1262;138529;-83
2023/04/20 17:39:56;;;;;;;10.50;3.60;;;;;;;15.37;57.12;100175.23;217075;1260;138846;-83
2023/04/20 17:45:00;;;;;;;7.50;4.30;;;;;;;15.13;57.19;100176.31;218107;1260;139755;-82
2023/04/20 17:50:03;;;;;;;6.00;3.60;;;;;;;14.88;57.37;100176.16;216977;1259;138880;-82
2023/04/20 17:55:07;;;;;;;5.70;3.60;;;;;;;14.63;57.84;100177.91;218017;1260;139329;-83
2023/04/20 18:00:10;;;;;;;6.80;4.00;;;;;;;14.38;58.58;100183.39;217121;1260;141254;-82
2023/04/20 18:05:14;;;;;;;5.10;3.20;;;;;;;14.12;59.51;100188.77;217243;1262;139680;-82
2023/04/20 18:10:18;;;;;;;8.10;3.90;;;;;;;13.85;59.97;100187.70;217276;1262;138583;-80
2023/04/20 18:15:21;;;;;;;12.30;4.30;;;;;;;13.60;60.57;100188.72;217559;1260;139065;-82
2023/04/20 18:20:24;;;;;;;9.90;5.40;;;;;;;13.38;61.37;100194.20;217200;1260;139862;-82
2023/04/20 18:25:26;;;;;;;6.00;4.30;;;;;;;13.18;61.78;100198.54;217759;1262;140557;-82
2023/04/20 18:30:29;;;;;;;9.20;4.30;;;;;;;12.98;62.36;100202.00;217452;1262;140096;-81
2023/04/20 18:35:32;;;;;;;11.00;5.10;;;;;;;12.78;62.66;100204.19;217372;1262;139739;-82
2023/04/20 18:40:38;;;;;;;7.90;4.70;;;;;;;12.58;62.94;100204.69;217771;1260;139822;-81
2023/04/20 18:45:42;;;;;;;8.40;4.90;;;;;;;12.39;63.46;100201.19;217352;1260;141255;-81
2023/04/20 18:50:49;;;;;;;5.80;3.80;;;;;;;12.23;63.77;100207.32;217603;1262;140665;-81
2023/04/20 18:55:57;;;;;;;7.20;4.70;;;;;;;12.08;64.21;100210.84;217798;1257;140212;-82
2023/04/20 19:01:04;;;;;;;11.00;5.20;;;;;;;11.93;64.81;100214.60;217805;1261;140044;-82
2023/04/20 19:06:09;;;;;;;9.70;6.10;;;;;;;11.77;64.86;100212.67;219271;1259;141440;-83
2023/04/20 19:11:12;;;;;;;6.20;4.10;;;;;;;11.64;65.45;100213.95;218926;1261;140522;-81
2023/04/20 19:16:20;;;;;;;10.90;5.00;;;;;;;11.54;65.45;100217.15;217405;1261;140763;-82
2023/04/20 19:21:24;;;;;;;7.00;5.20;;;;;;;11.40;65.70;100218.30;218940;1261;139694;-82
2023/04/20 19:26:30;;;;;;;6.90;5.80;;;;;;;11.27;65.89;100217.27;217638;1258;139355;-82
2023/04/20 19:31:38;;;;;;;11.40;5.60;;;;;;;11.13;66.27;100217.33;219508;1257;140303;-82
2023/04/20 19:36:44;;;;;;;9.10;5.60;;;;;;;11.01;66.60;100215.56;218733;1259;139484;-83
2023/04/20 19:41:48;;;;;;;10.80;5.80;;;;;;;10.89;66.64;100216.10;217887;1260;140475;-81
2023/04/20 19:46:53;;;;;;;15.00;5.90;;;;;;;10.78;66.88;100214.39;219063;1259;142425;-81
2023/04/20 19:51:57;;;;;;;9.40;6.20;;;;;;;10.65;67.09;100217.56;217539;1259;139881;-82
2023/04/20 19:57:03;;;;;;;10.10;6.10;;;;;;;10.52;67.41;100216.47;218712;1260;141215;-81
2023/04/20 20:02:07;;;;;;;10.80;7.50;;;;;;;10.36;67.47;100224.71;217554;1260;141055;-82
2023/04/20 20:07:12;;;;;;;13.60;8.60;;;;;;;10.17;67.95;100224.15;218554;1260;140306;-80
2023/04/20 20:12:16;;;;;;;43.50;17.20;;;;;;;10.07;68.46;100225.75;217292;1260;139843;-70
2023/04/20 20:17:18;;;;;;;32.30;17.60;;;;;;;9.99;68.40;100220.52;217708;1260;140126;-75
2023/04/20 20:22:21;;;;;;;48.20;21.70;;;;;;;9.91;68.23;100222.86;217787;1259;139704;-70
2023/04/20 20:27:24;;;;;;;27.60;14.70;;;;;;;9.86;67.91;100219.51;217183;1260;140159;-70
2023/04/20 20:32:28;;;;;;;23.30;13.30;;;;;;;9.81;67.77;100211.55;217124;1260;139903;-75
2023/04/20 20:37:33;;;;;;;20.30;12.80;;;;;;;9.76;67.53;100213.30;217300;1262;139963;-74
2023/04/20 20:42:43;;;;;;;15.60;11.10;;;;;;;9.72;67.38;100213.16;217109;1263;151616;-79
2023/04/20 20:47:47;;;;;;;15.70;10.60;;;;;;;9.67;67.17;100216.89;217162;1260;139710;-75
2023/04/20 20:52:51;;;;;;;18.10;10.90;;;;;;;9.61;67.06;100215.58;217429;1260;140249;-75
2023/04/20 20:57:54;;;;;;;13.30;10.70;;;;;;;9.55;66.85;100220.41;217623;1263;140679;-78
2023/04/20 21:03:00;;;;;;;18.50;11.00;;;;;;;9.48;67.05;100222.02;217258;1262;139936;-79
2023/04/20 21:08:04;;;;;;;19.40;11.90;;;;;;;9.39;67.01;100216.77;217121;1262;139579;-74
2023/04/20 21:13:07;;;;;;;16.80;13.20;;;;;;;9.31;67.05;100220.38;217136;1262;139677;-75
2023/04/20 21:18:11;;;;;;;18.70;13.60;;;;;;;9.25;67.01;100217.30;220069;1260;141140;-75
2023/04/20 21:23:14;;;;;;;13.90;12.10;;;;;;;9.23;67.19;100219.80;217496;1258;140684;-72
2023/04/20 21:28:18;;;;;;;14.40;11.50;;;;;;;9.19;67.01;100222.86;220056;1257;141769;-76
2023/04/20 21:33:21;;;;;;;16.00;12.30;;;;;;;9.13;67.04;100221.64;218650;1259;140425;-72
2023/04/20 21:38:24;;;;;;;17.80;11.00;;;;;;;9.11;67.07;100225.00;217447;1262;139670;-73
2023/04/20 21:43:28;;;;;;;19.10;11.80;;;;;;;9.08;67.15;100225.55;217053;1263;139655;-73
2023/04/20 21:48:33;;;;;;;18.90;11.40;;;;;;;9.05;67.32;100222.73;217351;1263;140007;-74
2023/04/20 21:53:36;;;;;;;16.00;12.70;;;;;;;9.05;67.36;100224.09;217168;1262;139803;-71
2023/04/20 21:58:41;;;;;;;18.60;12.70;;;;;;;9.04;67.32;100222.83;217838;1261;139441;-76
2023/04/20 22:03:46;;;;;;;14.60;12.80;;;;;;;8.99;67.36;100223.05;217892;1258;140092;-69
2023/04/20 22:08:50;;;;;;;14.80;13.00;;;;;;;8.95;67.18;100222.63;218214;1257;139507;-72
2023/04/20 22:13:52;;;;;;;17.30;13.20;;;;;;;8.89;67.11;100224.16;217056;1261;140645;-69
2023/04/20 22:18:57;;;;;;;14.10;12.50;;;;;;;8.84;66.68;100232.18;217137;1262;140693;-76
2023/04/20 22:24:01;;;;;;;24.40;13.40;;;;;;;8.79;66.76;100227.91;217113;1263;139438;-76
2023/04/20 22:29:03;;;;;;;15.50;12.50;;;;;;;8.73;66.55;100228.13;218017;1260;139479;-73
2023/04/20 22:34:06;;;;;;;16.00;12.20;;;;;;;8.67;66.71;100229.44;217424;1260;140339;-70
2023/04/20 22:39:10;;;;;;;16.20;13.20;;;;;;;8.61;66.55;100232.49;217908;1259;139765;-75
2023/04/20 22:44:14;;;;;;;22.00;14.70;;;;;;;8.55;66.89;100237.71;217755;1257;140320;-82
2023/04/20 22:49:18;;;;;;;17.30;13.50;;;;;;;8.50;67.10;100238.52;217323;1262;139706;-73
2023/04/20 22:54:22;;;;;;;15.20;12.90;;;;;;;8.42;66.72;100240.80;217356;1260;141163;-74
2023/04/20 22:59:25;;;;;;;20.30;14.30;;;;;;;8.37;66.84;100241.73;217667;1260;139744;-69
2023/04/20 23:04:28;;;;;;;16.50;13.80;;;;;;;8.32;66.95;100237.59;218698;1261;159688;-71
2023/04/20 23:09:31;;;;;;;19.40;14.20;;;;;;;8.27;66.90;100233.01;217924;1263;139218;-70
2023/04/20 23:14:35;;;;;;;18.70;15.60;;;;;;;8.22;66.97;100235.16;217494;1263;139673;-71
2023/04/20 23:19:39;;;;;;;20.70;15.20;;;;;;;8.17;66.69;100238.27;219035;1257;140382;-70
2023/04/20 23:24:41;;;;;;;16.70;13.30;;;;;;;8.12;67.22;100241.95;217839;1258;140623;-75
2023/04/20 23:29:45;;;;;;;15.50;13.80;;;;;;;8.07;67.14;100240.60;218766;1256;140382;-71
2023/04/20 23:34:48;;;;;;;14.20;12.40;;;;;;;8.02;67.35;100242.06;220038;1256;139359;-72
2023/04/20 23:39:50;;;;;;;15.80;12.70;;;;;;;7.97;67.40;100236.15;217419;1260;140670;-70
2023/04/20 23:44:54;;;;;;;17.50;13.80;;;;;;;7.93;67.70;100233.88;217655;1261;139629;-76
2023/04/20 23:49:58;;;;;;;17.70;13.00;;;;;;;7.89;68.04;100229.80;217707;1258;140739;-74